Time;durP1;ratioP1;P1;durP2;ratioP2;P2;SDS_P1;SDS_P2;PMS_P1;PMS_P2;Temp;Humidity;BMP_temperature;BMP_pressure;BME280_temperature;BME280_humidity;BME280_pressure;Samples;Min_cycle;Max_cycle;Signal;HPM_P1;HPM_P2
2021/11/20 00:02:16;;;;;;;;;72.25;59.00;12.80;54.40;;;;;;5093542;28;8787;-68
2021/11/20 00:04:43;;;;;;;;;69.00;56.75;12.90;53.70;;;;;;5091687;28;8772;-68
2021/11/20 00:07:10;;;;;;;;;66.25;54.75;12.90;53.60;;;;;;5093963;28;8760;-68
2021/11/20 00:09:36;;;;;;;;;61.75;52.00;12.90;53.40;;;;;;5094084;28;8760;-68
2021/11/20 00:12:11;;;;;;;;;62.25;52.00;12.80;53.60;;;;;;5093395;28;8834;-69
2021/11/20 00:14:37;;;;;;;;;72.75;58.25;12.70;54.10;;;;;;5066814;28;8776;-68
2021/11/20 00:17:04;;;;;;;;;69.25;56.75;12.90;53.70;;;;;;5094189;28;8821;-69
2021/11/20 00:19:32;;;;;;;;;68.75;55.75;13.00;53.20;;;;;;5093908;28;8783;-69
2021/11/20 00:21:57;;;;;;;;;64.00;54.00;12.70;53.80;;;;;;5094176;28;8763;-69
2021/11/20 00:24:27;;;;;;;;;61.50;51.75;12.60;53.80;;;;;;5097827;28;8844;-70
2021/11/20 00:26:54;;;;;;;;;63.00;52.50;12.50;54.30;;;;;;5097846;28;8765;-68
2021/11/20 00:29:26;;;;;;;;;60.75;50.75;12.50;54.40;;;;;;5097391;28;8796;-69
2021/11/20 00:31:58;;;;;;;;;60.75;51.75;12.40;54.40;;;;;;5097374;28;8838;-69
2021/11/20 00:34:28;;;;;;;;;63.75;53.00;12.20;55.20;;;;;;5097567;28;8759;-69
2021/11/20 00:36:55;;;;;;;;;63.75;52.00;12.20;55.50;;;;;;5097701;28;8747;-68
2021/11/20 00:39:24;;;;;;;;;64.50;53.75;12.40;55.10;;;;;;5097499;28;8764;-68
2021/11/20 00:41:51;;;;;;;;;65.50;53.75;12.30;55.20;;;;;;5097607;28;8867;-69
2021/11/20 00:44:17;;;;;;;;;66.75;55.25;12.30;55.30;;;;;;5097567;28;8748;-69
2021/11/20 00:46:44;;;;;;;;;53.00;45.00;12.60;54.70;;;;;;5097246;28;8767;-69
2021/11/20 00:49:11;;;;;;;;;62.00;51.00;12.40;55.00;;;;;;5097012;28;8827;-68
2021/11/20 00:51:37;;;;;;;;;59.00;49.75;12.20;55.90;;;;;;5097058;28;8823;-69
2021/11/20 00:54:04;;;;;;;;;58.25;48.75;12.20;55.80;;;;;;5097404;28;8764;-69
2021/11/20 00:56:32;;;;;;;;;65.75;53.25;12.50;55.00;;;;;;5097087;28;8752;-68
2021/11/20 00:58:58;;;;;;;;;54.25;47.00;12.60;54.50;;;;;;5097002;28;8867;-68
2021/11/20 01:01:37;;;;;;;;;60.75;50.00;12.80;53.80;;;;;;5096997;28;8779;-68
2021/11/20 01:04:05;;;;;;;;;63.25;51.75;13.20;52.90;;;;;;5096968;28;8763;-70
2021/11/20 01:06:31;;;;;;;;;62.00;51.50;13.10;52.40;;;;;;5096969;28;8744;-67
2021/11/20 01:08:58;;;;;;;;;57.00;48.25;12.90;53.00;;;;;;5097109;28;8748;-70
2021/11/20 01:11:34;;;;;;;;;58.50;50.00;12.80;53.30;;;;;;5096692;28;8795;-70
2021/11/20 01:14:02;;;;;;;;;51.00;44.00;13.10;52.30;;;;;;5097028;28;8755;-68
2021/11/20 01:16:29;;;;;;;;;48.75;42.75;12.80;54.20;;;;;;5096636;28;8795;-69
2021/11/20 01:18:57;;;;;;;;;48.00;42.00;12.70;53.30;;;;;;5096678;28;8790;-68
2021/11/20 01:21:22;;;;;;;;;45.75;40.00;12.80;53.20;;;;;;5096906;28;8756;-70
2021/11/20 01:23:49;;;;;;;;;48.75;41.75;12.60;53.40;;;;;;5096520;28;8752;-68
2021/11/20 01:26:17;;;;;;;;;44.75;39.00;12.60;53.90;;;;;;5096548;28;8780;-66
2021/11/20 01:28:45;;;;;;;;;44.00;39.25;12.50;54.00;;;;;;5096898;28;8788;-68
2021/11/20 01:31:12;;;;;;;;;44.50;40.00;12.70;53.70;;;;;;5096643;28;8807;-67
2021/11/20 01:33:40;;;;;;;;;41.50;37.00;12.70;53.70;;;;;;5095870;28;8756;-69
2021/11/20 01:36:07;;;;;;;;;51.50;44.50;12.60;53.70;;;;;;5096105;28;8822;-69
2021/11/20 01:38:34;;;;;;;;;46.75;41.50;12.70;53.60;;;;;;5096308;28;9525;-68
2021/11/20 01:41:01;;;;;;;;;47.75;40.75;12.70;53.40;;;;;;5096208;28;8767;-69
2021/11/20 01:43:27;;;;;;;;;48.75;42.50;12.80;53.50;;;;;;5096208;28;8768;-68
2021/11/20 01:46:11;;;;;;;;;52.50;45.25;12.50;54.70;;;;;;5096132;28;8755;-69
2021/11/20 01:48:39;;;;;;;;;43.75;39.25;12.50;54.70;;;;;;5095955;28;8807;-68
2021/11/20 01:51:11;;;;;;;;;44.75;39.50;12.60;54.60;;;;;;5096190;28;9461;-69
2021/11/20 01:54:09;;;;;;;;;46.50;40.50;12.90;53.70;;;;;;5096302;28;8866;-69
2021/11/20 01:56:53;;;;;;;;;53.00;44.50;12.50;54.80;;;;;;5095992;28;8786;-69
2021/11/20 01:59:48;;;;;;;;;55.00;47.00;12.70;54.80;;;;;;5096553;28;8784;-68
2021/11/20 02:02:18;;;;;;;;;55.50;47.00;12.80;54.50;;;;;;5096159;28;8764;-69
2021/11/20 02:04:59;;;;;;;;;57.25;48.75;12.50;55.30;;;;;;5096151;28;8768;-68
2021/11/20 02:07:29;;;;;;;;;58.50;49.75;12.30;56.30;;;;;;5095778;28;8748;-69
2021/11/20 02:10:07;;;;;;;;;55.75;47.25;12.40;56.30;;;;;;5095829;28;8772;-69
2021/11/20 02:12:40;;;;;;;;;54.00;46.00;12.30;56.30;;;;;;5095843;28;8799;-69
2021/11/20 02:15:12;;;;;;;;;56.25;48.25;12.50;55.90;;;;;;5095838;28;9410;-69
2021/11/20 02:17:44;;;;;;;;;57.00;48.25;12.60;55.70;;;;;;5095519;28;8830;-68
2021/11/20 02:20:20;;;;;;;;;56.00;47.00;12.80;54.80;;;;;;5095681;28;8760;-68
2021/11/20 02:22:46;;;;;;;;;58.50;49.75;12.60;55.20;;;;;;5095460;28;8767;-70
2021/11/20 02:25:12;;;;;;;;;56.25;47.75;12.40;56.30;;;;;;5095418;28;8772;-69
2021/11/20 02:27:41;;;;;;;;;61.75;51.00;12.20;56.70;;;;;;5095305;28;8803;-69
2021/11/20 02:30:25;;;;;;;;;59.00;50.00;12.50;55.90;;;;;;5095206;28;8776;-69
2021/11/20 02:33:04;;;;;;;;;61.50;51.25;12.60;55.40;;;;;;5093224;28;8812;-69
2021/11/20 02:35:43;;;;;;;;;55.25;46.25;12.60;55.60;;;;;;5094915;28;8768;-69
2021/11/20 02:38:16;;;;;;;;;58.00;48.50;12.60;55.90;;;;;;5095159;28;8776;-69
2021/11/20 02:40:43;;;;;;;;;55.50;47.50;12.50;56.10;;;;;;5095265;28;8821;-69
2021/11/20 02:43:10;;;;;;;;;56.25;48.25;12.40;56.00;;;;;;5095085;28;8779;-69
2021/11/20 02:45:43;;;;;;;;;58.75;50.00;12.30;56.80;;;;;;5094831;28;8772;-68
2021/11/20 02:48:10;;;;;;;;;59.75;49.50;12.50;56.00;;;;;;5094860;28;8872;-70
2021/11/20 02:50:51;;;;;;;;;56.00;47.50;12.30;56.80;;;;;;5094887;28;8846;-69
2021/11/20 02:53:20;;;;;;;;;57.00;49.00;12.40;56.80;;;;;;5095205;28;9507;-70
2021/11/20 02:55:51;;;;;;;;;60.00;49.50;12.30;56.80;;;;;;5094893;28;8755;-69
2021/11/20 02:58:21;;;;;;;;;59.50;50.00;12.10;57.40;;;;;;5094989;28;8937;-70
2021/11/20 03:00:50;;;;;;;;;62.25;51.25;12.20;57.70;;;;;;5094612;28;8790;-70
2021/11/20 03:03:16;;;;;;;;;58.25;49.75;12.40;56.80;;;;;;5094743;28;8752;-70
2021/11/20 03:05:42;;;;;;;;;57.50;48.25;12.30;57.00;;;;;;5094963;28;8767;-69
2021/11/20 03:08:07;;;;;;;;;56.75;48.00;12.60;56.50;;;;;;5094664;28;8764;-70
2021/11/20 03:10:34;;;;;;;;;60.00;50.75;12.40;56.70;;;;;;5094703;28;8763;-70
2021/11/20 03:12:59;;;;;;;;;58.25;49.50;12.20;57.50;;;;;;5094547;28;8767;-68
2021/11/20 03:15:25;;;;;;;;;56.00;48.00;12.10;57.50;;;;;;5094564;28;8791;-70
2021/11/20 03:17:51;;;;;;;;;58.50;48.50;12.00;58.30;;;;;;5094611;28;8764;-70
2021/11/20 03:20:19;;;;;;;;;61.25;51.25;12.00;58.20;;;;;;5094553;28;8768;-69
2021/11/20 03:22:54;;;;;;;;;58.75;49.75;12.20;57.90;;;;;;5094556;28;8780;-69
2021/11/20 03:25:21;;;;;;;;;60.25;50.75;12.40;57.40;;;;;;5094612;28;8747;-70
2021/11/20 03:27:47;;;;;;;;;61.00;51.75;12.40;56.90;;;;;;5094771;28;8881;-70
2021/11/20 03:30:14;;;;;;;;;57.25;48.50;12.20;57.70;;;;;;5094829;28;9433;-69
2021/11/20 03:32:41;;;;;;;;;62.00;51.75;12.20;58.00;;;;;;5094562;28;8868;-69
2021/11/20 03:35:08;;;;;;;;;65.75;53.00;12.20;58.00;;;;;;5094491;28;8760;-69
2021/11/20 03:37:34;;;;;;;;;63.50;51.25;12.10;58.00;;;;;;5094640;28;8763;-70
2021/11/20 03:39:59;;;;;;;;;63.50;52.50;12.20;58.10;;;;;;5094367;28;8756;-70
2021/11/20 03:42:26;;;;;;;;;59.50;49.75;12.00;58.50;;;;;;5094601;28;8791;-70
2021/11/20 03:44:52;;;;;;;;;61.00;50.25;12.10;58.20;;;;;;5094550;28;9445;-69
2021/11/20 03:47:18;;;;;;;;;57.50;48.75;12.10;58.20;;;;;;5094288;28;8902;-70
2021/11/20 03:49:44;;;;;;;;;60.00;50.00;12.20;58.20;;;;;;5094309;28;8814;-69
2021/11/20 03:52:12;;;;;;;;;62.50;51.50;12.00;58.50;;;;;;5094137;28;8830;-69
2021/11/20 03:54:38;;;;;;;;;56.25;48.00;11.90;59.20;;;;;;5094277;28;8752;-69
2021/11/20 03:57:05;;;;;;;;;63.25;51.00;11.80;59.50;;;;;;5094272;28;8767;-70
2021/11/20 03:59:32;;;;;;;;;51.25;43.50;11.90;59.40;;;;;;5098209;28;8752;-69
2021/11/20 04:01:59;;;;;;;;;59.50;50.00;11.80;59.60;;;;;;5098172;28;8780;-69
2021/11/20 04:04:26;;;;;;;;;59.25;50.00;11.70;60.10;;;;;;5098293;28;9445;-69
2021/11/20 04:06:52;;;;;;;;;62.00;51.75;11.80;60.10;;;;;;5098240;28;9434;-69
2021/11/20 04:09:18;;;;;;;;;57.50;49.50;11.90;59.70;;;;;;5097979;28;8874;-69
2021/11/20 04:11:47;;;;;;;;;62.50;52.75;11.80;60.00;;;;;;5097794;28;8812;-70
2021/11/20 04:14:14;;;;;;;;;62.75;52.25;11.70;60.50;;;;;;5097824;28;8778;-69
2021/11/20 04:16:41;;;;;;;;;64.25;52.75;11.80;60.20;;;;;;5097846;28;8744;-69
2021/11/20 04:19:07;;;;;;;;;68.75;56.25;11.70;60.70;;;;;;5097874;28;8751;-70
2021/11/20 04:21:33;;;;;;;;;68.00;54.75;11.80;60.40;;;;;;5097839;28;8779;-69
2021/11/20 04:24:00;;;;;;;;;63.00;52.25;11.60;60.90;;;;;;5098041;28;8840;-69
2021/11/20 04:26:27;;;;;;;;;66.25;54.50;11.70;61.00;;;;;;5097937;28;8756;-68
2021/11/20 04:28:53;;;;;;;;;65.75;55.25;11.50;61.40;;;;;;5098026;28;9426;-69
2021/11/20 04:31:19;;;;;;;;;65.00;54.00;11.20;62.50;;;;;;5097552;28;8811;-69
2021/11/20 04:33:49;;;;;;;;;64.50;54.50;11.60;61.60;;;;;;5097522;28;8759;-68
2021/11/20 04:36:16;;;;;;;;;60.25;50.25;11.90;60.60;;;;;;5097479;28;8787;-69
2021/11/20 04:38:42;;;;;;;;;62.50;51.50;11.70;61.00;;;;;;5097700;28;8748;-68
2021/11/20 04:41:08;;;;;;;;;62.50;52.50;11.80;60.80;;;;;;5097437;28;8768;-68
2021/11/20 04:43:35;;;;;;;;;63.00;52.50;11.80;60.50;;;;;;5097681;28;8806;-68
2021/11/20 04:46:01;;;;;;;;;65.75;53.75;11.70;61.00;;;;;;5097532;28;8763;-68
2021/11/20 04:48:26;;;;;;;;;59.50;50.50;11.70;61.40;;;;;;5097116;28;8790;-67
2021/11/20 04:50:54;;;;;;;;;67.00;55.75;11.70;61.30;;;;;;5097149;28;8905;-68
2021/11/20 04:53:21;;;;;;;;;68.50;55.25;11.50;62.10;;;;;;5097439;28;8944;-68
2021/11/20 04:55:47;;;;;;;;;68.00;56.50;11.80;61.30;;;;;;5097373;28;8761;-68
2021/11/20 04:58:14;;;;;;;;;66.25;55.00;11.70;61.60;;;;;;5097180;28;8795;-69
2021/11/20 05:00:44;;;;;;;;;68.00;55.00;11.50;61.90;;;;;;5097047;28;8799;-68
2021/11/20 05:03:11;;;;;;;;;68.25;55.75;11.50;61.80;;;;;;5096995;28;9453;-69
2021/11/20 05:05:39;;;;;;;;;64.50;53.75;11.60;62.10;;;;;;5096854;28;8763;-69
2021/11/20 05:08:06;;;;;;;;;67.75;55.00;11.50;62.10;;;;;;5096797;28;8802;-69
2021/11/20 05:10:33;;;;;;;;;64.50;54.50;11.40;62.50;;;;;;5096881;28;8760;-69
2021/11/20 05:12:59;;;;;;;;;65.75;54.00;11.30;62.90;;;;;;5096832;28;8768;-67
2021/11/20 05:15:27;;;;;;;;;66.75;55.25;11.40;62.50;;;;;;5096964;28;8767;-71
2021/11/20 05:17:53;;;;;;;;;64.50;53.50;11.30;62.70;;;;;;5096949;28;8852;-70
2021/11/20 05:20:18;;;;;;;;;68.50;56.25;11.20;63.00;;;;;;5096835;28;8787;-69
2021/11/20 05:22:44;;;;;;;;;71.50;58.75;11.30;62.70;;;;;;5078746;28;8792;-70
2021/11/20 05:25:13;;;;;;;;;65.25;54.50;11.40;62.20;;;;;;5096574;28;8787;-71
2021/11/20 05:27:39;;;;;;;;;66.25;54.00;11.20;62.70;;;;;;5096638;28;8772;-70
2021/11/20 05:30:16;;;;;;;;;62.75;51.25;11.20;62.30;;;;;;5096411;28;8824;-71
2021/11/20 05:32:43;;;;;;;;;64.50;54.00;11.10;62.60;;;;;;5096536;28;8827;-71
2021/11/20 05:35:09;;;;;;;;;59.75;50.25;11.30;62.50;;;;;;5096424;28;8871;-69
2021/11/20 05:37:35;;;;;;;;;57.25;49.25;11.40;61.50;;;;;;5096568;28;8910;-69
2021/11/20 05:40:03;;;;;;;;;58.25;49.50;11.30;62.10;;;;;;5096274;28;9426;-69
2021/11/20 05:42:29;;;;;;;;;63.00;52.00;11.10;62.60;;;;;;5095848;28;8875;-69
2021/11/20 05:44:55;;;;;;;;;59.25;49.25;11.30;62.20;;;;;;5096385;28;8784;-68
2021/11/20 05:47:21;;;;;;;;;53.75;46.00;11.20;62.00;;;;;;5096152;28;8813;-66
2021/11/20 05:49:46;;;;;;;;;56.75;48.50;11.20;62.30;;;;;;5096094;28;8771;-66
2021/11/20 05:52:14;;;;;;;;;68.00;56.25;11.00;62.80;;;;;;5077967;28;8804;-66
2021/11/20 05:54:41;;;;;;;;;64.25;53.25;11.00;62.80;;;;;;5096244;28;9445;-66
2021/11/20 05:57:08;;;;;;;;;70.25;57.00;10.90;63.20;;;;;;5095809;28;8760;-65
2021/11/20 05:59:34;;;;;;;;;65.25;54.00;11.20;62.10;;;;;;5095933;28;8790;-65
2021/11/20 06:02:00;;;;;;;;;67.00;55.00;11.30;62.00;;;;;;5095741;28;8772;-65
2021/11/20 06:04:29;;;;;;;;;68.75;57.25;11.20;61.90;;;;;;5095746;28;8759;-65
2021/11/20 06:06:55;;;;;;;;;80.50;64.25;11.40;61.40;;;;;;5095699;28;8798;-65
2021/11/20 06:09:21;;;;;;;;;76.00;63.50;11.20;62.20;;;;;;5095956;28;8763;-65
2021/11/20 06:11:47;;;;;;;;;75.75;62.25;11.40;62.50;;;;;;5095809;28;8822;-65
2021/11/20 06:14:14;;;;;;;;;71.25;59.00;11.40;61.20;;;;;;5095879;28;8760;-64
2021/11/20 06:16:39;;;;;;;;;74.50;63.00;11.30;61.40;;;;;;5095606;28;8842;-64
2021/11/20 06:19:06;;;;;;;;;79.25;69.25;11.40;61.10;;;;;;5095530;28;8759;-65
2021/11/20 06:21:32;;;;;;;;;80.00;69.25;11.60;60.50;;;;;;5094908;28;8764;-65
2021/11/20 06:23:58;;;;;;;;;75.00;62.00;11.80;60.00;;;;;;5095480;28;8771;-64
2021/11/20 06:26:25;;;;;;;;;75.50;59.75;11.60;60.20;;;;;;5095626;28;8775;-65
2021/11/20 06:28:51;;;;;;;;;72.75;59.00;11.80;59.80;;;;;;5095712;28;8814;-64
2021/11/20 06:31:17;;;;;;;;;74.00;61.75;12.10;58.60;;;;;;5095124;28;8796;-65
2021/11/20 06:33:43;;;;;;;;;70.00;57.75;12.20;58.40;;;;;;5095336;28;8815;-65
2021/11/20 06:36:10;;;;;;;;;74.75;61.25;12.20;58.10;;;;;;5095403;28;8755;-65
2021/11/20 06:38:39;;;;;;;;;72.00;58.75;12.10;58.60;;;;;;5095389;28;8874;-64
2021/11/20 06:41:06;;;;;;;;;72.50;60.00;12.00;58.90;;;;;;5095063;28;8799;-65
2021/11/20 06:43:32;;;;;;;;;70.00;57.00;11.70;60.00;;;;;;5095087;28;8771;-65
2021/11/20 06:46:01;;;;;;;;;67.00;54.50;11.60;60.20;;;;;;5095093;28;9441;-65
2021/11/20 06:48:28;;;;;;;;;64.50;53.25;11.60;60.40;;;;;;5094922;28;8803;-65
2021/11/20 06:50:54;;;;;;;;;63.75;53.50;11.50;60.60;;;;;;5094860;28;8852;-64
2021/11/20 06:53:21;;;;;;;;;62.25;51.50;11.30;61.40;;;;;;5094953;28;8778;-64
2021/11/20 06:55:47;;;;;;;;;59.50;50.50;11.30;61.50;;;;;;5095075;28;8790;-65
2021/11/20 07:00:44;;;;;;;;;60.00;51.00;11.30;61.90;;;;;;5094895;28;8791;-64
2021/11/20 07:03:32;;;;;;;;;57.50;48.50;11.40;61.50;;;;;;5094783;28;8791;-65
2021/11/20 07:06:03;;;;;;;;;62.75;52.75;11.40;61.60;;;;;;5094796;28;8779;-64
2021/11/20 07:08:29;;;;;;;;;59.25;50.00;11.20;62.10;;;;;;5092505;28;8768;-66
2021/11/20 07:10:57;;;;;;;;;67.75;54.75;11.40;61.70;;;;;;5092939;28;8827;-67
2021/11/20 07:13:23;;;;;;;;;67.50;54.25;11.50;61.40;;;;;;5094705;28;9406;-67
2021/11/20 07:15:50;;;;;;;;;68.00;55.75;11.50;61.20;;;;;;5094840;28;8902;-67
2021/11/20 07:18:17;;;;;;;;;64.75;54.00;11.40;61.60;;;;;;5094528;28;8798;-67
2021/11/20 07:20:43;;;;;;;;;66.25;54.50;11.60;61.10;;;;;;5094435;28;9494;-67
2021/11/20 07:23:10;;;;;;;;;62.00;52.00;11.50;61.20;;;;;;5094587;28;8770;-66
2021/11/20 07:25:39;;;;;;;;;64.75;53.50;11.60;61.00;;;;;;5094388;28;8807;-67
2021/11/20 07:28:06;;;;;;;;;62.50;51.25;11.40;61.40;;;;;;5094601;28;8788;-66
2021/11/20 07:30:34;;;;;;;;;71.00;59.00;11.60;60.90;;;;;;5093858;28;8941;-67
2021/11/20 07:33:00;;;;;;;;;67.25;55.50;11.60;60.90;;;;;;5095990;28;8834;-67
2021/11/20 07:35:32;;;;;;;;;64.50;52.75;11.80;60.60;;;;;;5098865;28;9437;-66
2021/11/20 07:37:58;;;;;;;;;67.75;56.00;11.70;60.50;;;;;;5098810;28;8772;-67
2021/11/20 07:40:26;;;;;;;;;60.75;50.00;11.90;60.50;;;;;;5098504;28;8751;-67
2021/11/20 07:42:52;;;;;;;;;62.50;51.50;11.90;60.00;;;;;;5098252;28;8806;-66
2021/11/20 07:45:19;;;;;;;;;58.25;49.50;11.80;60.50;;;;;;5098720;28;8772;-66
2021/11/20 07:47:45;;;;;;;;;58.75;49.75;12.10;60.70;;;;;;5098279;28;8824;-76
2021/11/20 07:50:11;;;;;;;;;35.50;34.50;12.10;59.90;;;;;;5098536;28;8763;-74
2021/11/20 07:52:37;;;;;;;;;60.25;50.25;12.20;59.30;;;;;;5098677;28;8780;-67
2021/11/20 07:55:05;;;;;;;;;57.00;48.50;12.20;59.20;;;;;;5097614;28;9444;-68
2021/11/20 07:57:31;;;;;;;;;52.50;45.00;12.30;59.00;;;;;;5080091;28;8771;-67
2021/11/20 07:59:57;;;;;;;;;57.00;46.25;12.20;59.50;;;;;;5098390;28;8791;-68
2021/11/20 08:02:22;;;;;;;;;56.00;47.00;12.10;60.30;;;;;;5098246;28;8791;-68
2021/11/20 08:04:48;;;;;;;;;60.00;51.00;11.90;61.10;;;;;;5098041;28;8748;-67
2021/11/20 08:07:14;;;;;;;;;57.00;47.00;11.90;60.70;;;;;;5098085;28;8760;-67
2021/11/20 08:09:40;;;;;;;;;55.00;46.75;11.80;60.80;;;;;;5098044;28;8940;-67
2021/11/20 08:12:07;;;;;;;;;56.75;48.00;11.90;60.40;;;;;;5097853;28;8818;-68
2021/11/20 08:14:33;;;;;;;;;57.25;48.75;12.00;60.10;;;;;;5097675;28;8756;-68
2021/11/20 08:16:59;;;;;;;;;50.50;44.50;12.10;59.70;;;;;;5098081;28;8790;-68
2021/11/20 08:19:25;;;;;;;;;53.00;45.00;12.30;59.50;;;;;;5098343;28;8760;-69
2021/11/20 08:21:52;;;;;;;;;54.25;46.50;12.30;59.60;;;;;;5097756;28;8786;-68
2021/11/20 08:24:18;;;;;;;;;53.50;46.00;12.50;59.20;;;;;;5097031;28;8819;-70
2021/11/20 08:26:44;;;;;;;;;52.50;44.50;12.60;59.20;;;;;;5096480;28;8780;-74
2021/11/20 08:29:14;;;;;;;;;41.25;38.25;12.80;59.10;;;;;;5095498;28;8819;-68
2021/11/20 08:31:44;;;;;;;;;52.25;45.00;12.60;59.50;;;;;;5079022;28;8912;-67
2021/11/20 08:34:11;;;;;;;;;43.25;39.50;12.80;59.30;;;;;;5095748;28;8814;-66
2021/11/20 08:36:38;;;;;;;;;47.50;41.00;12.60;59.80;;;;;;5090258;28;8792;-66
2021/11/20 08:39:05;;;;;;;;;45.00;40.25;12.70;59.90;;;;;;5088638;28;8779;-66
2021/11/20 08:41:31;;;;;;;;;49.75;43.50;12.70;59.80;;;;;;5096187;28;8772;-67
2021/11/20 08:43:57;;;;;;;;;53.25;45.75;12.80;59.60;;;;;;5093627;28;8780;-67
2021/11/20 08:46:24;;;;;;;;;51.75;43.50;13.00;59.60;;;;;;5097462;28;8760;-67
2021/11/20 08:48:50;;;;;;;;;45.50;38.25;13.10;59.40;;;;;;5095762;28;8799;-66
2021/11/20 08:51:19;;;;;;;;;48.50;40.75;13.00;59.60;;;;;;5096605;28;8807;-67
2021/11/20 08:53:45;;;;;;;;;42.25;38.00;13.00;60.30;;;;;;5096989;28;8788;-66
2021/11/20 08:56:12;;;;;;;;;29.67;29.67;13.10;59.60;;;;;;5096982;28;8783;-66
2021/11/20 08:58:39;;;;;;;;;41.00;38.00;13.00;59.90;;;;;;5097459;28;9429;-66
2021/11/20 09:01:27;;;;;;;;;40.67;37.67;13.00;60.30;;;;;;5096624;28;9201;-66
2021/11/20 09:04:00;;;;;;;;;35.33;33.67;13.20;59.30;;;;;;5092376;28;8968;-66
2021/11/20 09:06:32;;;;;;;;;39.00;36.00;13.30;58.80;;;;;;5078856;28;8761;-68
2021/11/20 09:09:22;;;;;;;;;37.00;34.33;13.30;58.70;;;;;;5076554;28;8761;-68
2021/11/20 09:11:59;;;;;;;;;41.33;36.67;13.40;58.70;;;;;;5088362;28;8780;-67
2021/11/20 09:14:28;;;;;;;;;34.67;33.33;13.40;58.70;;;;;;5095728;28;8776;-67
2021/11/20 09:16:58;;;;;;;;;31.33;31.00;13.90;57.20;;;;;;5096489;28;8783;-69
2021/11/20 09:19:30;;;;;;;;;36.67;35.00;13.80;57.20;;;;;;5095985;28;8780;-67
2021/11/20 09:22:01;;;;;;;;;33.00;32.00;13.90;57.30;;;;;;5094990;28;8818;-67
2021/11/20 09:24:31;;;;;;;;;41.00;36.67;13.80;57.90;;;;;;5094881;28;9401;-67
2021/11/20 09:26:57;;;;;;;;;32.67;31.67;13.90;57.80;;;;;;5095797;28;8796;-67
2021/11/20 09:29:26;;;;;;;;;30.00;29.33;14.00;56.90;;;;;;5096797;28;8790;-68
2021/11/20 09:31:52;;;;;;;;;31.67;31.00;13.90;57.20;;;;;;5095865;28;9493;-67
2021/11/20 09:34:19;;;;;;;;;29.00;29.00;13.90;57.70;;;;;;5096204;28;8870;-67
2021/11/20 09:36:47;;;;;;;;;27.33;27.33;13.90;57.20;;;;;;5076515;28;8786;-67
2021/11/20 09:39:15;;;;;;;;;39.33;36.33;14.00;57.30;;;;;;5093885;28;8756;-67
2021/11/20 09:41:59;;;;;;;;;34.33;33.33;14.10;57.40;;;;;;5096128;28;8780;-67
2021/11/20 09:44:26;;;;;;;;;39.33;35.67;14.80;54.90;;;;;;5094076;28;8780;-67
2021/11/20 09:46:56;;;;;;;;;26.00;25.33;15.10;54.10;;;;;;5095447;28;8772;-68
2021/11/20 09:49:36;;;;;;;;;27.00;26.00;15.20;53.00;;;;;;5091204;28;8796;-67
2021/11/20 09:52:02;;;;;;;;;32.33;31.67;15.40;52.70;;;;;;5092220;28;8814;-67
2021/11/20 09:54:36;;;;;;;;;26.00;26.00;15.70;52.00;;;;;;5095778;28;8759;-68
2021/11/20 09:57:08;;;;;;;;;25.67;25.67;15.90;51.50;;;;;;5095255;28;8767;-68
2021/11/20 09:59:49;;;;;;;;;29.67;29.67;17.10;49.40;;;;;;5093428;28;8772;-67
2021/11/20 10:02:27;;;;;;;;;34.67;30.00;19.00;45.40;;;;;;5095651;28;8802;-69
2021/11/20 10:04:52;;;;;;;;;31.00;29.00;23.10;38.30;;;;;;5091323;28;8812;-68
2021/11/20 10:07:31;;;;;;;;;23.75;23.75;26.60;32.30;;;;;;5084632;28;11474;-69
2021/11/20 10:10:15;;;;;;;;;22.50;22.50;29.60;28.20;;;;;;5095608;28;8752;-69
2021/11/20 10:12:46;;;;;;;;;24.75;24.75;30.70;26.80;;;;;;5095301;28;11501;-69
2021/11/20 10:15:16;;;;;;;;;25.50;25.50;32.20;25.30;;;;;;5093048;28;11482;-69
2021/11/20 10:17:52;;;;;;;;;22.50;22.50;32.80;24.40;;;;;;5094623;28;11514;-68
2021/11/20 10:20:45;;;;;;;;;20.50;20.50;33.30;23.90;;;;;;5094142;28;11465;-69
2021/11/20 10:23:30;;;;;;;;;24.75;24.75;33.10;23.00;;;;;;5090707;28;11451;-69
2021/11/20 10:26:20;;;;;;;;;23.75;23.75;33.20;23.00;;;;;;5095289;28;11457;-69
2021/11/20 10:29:01;;;;;;;;;19.25;19.25;33.60;22.90;;;;;;5095397;28;11544;-69
2021/11/20 10:31:58;;;;;;;;;22.00;22.00;33.80;22.20;;;;;;5094477;28;11481;-67
2021/11/20 10:34:33;;;;;;;;;25.00;25.00;33.80;23.50;;;;;;5081188;28;11597;-68
2021/11/20 10:37:15;;;;;;;;;24.75;24.75;34.50;22.00;;;;;;5074526;28;11482;-68
2021/11/20 10:39:52;;;;;;;;;20.00;20.00;35.50;21.50;;;;;;5092497;28;11490;-67
2021/11/20 10:42:29;;;;;;;;;21.00;21.00;34.00;21.70;;;;;;5094132;28;11566;-67
2021/11/20 10:45:30;;;;;;;;;18.75;18.75;32.30;23.10;;;;;;5094344;28;11480;-67
2021/11/20 10:48:07;;;;;;;;;19.00;19.00;32.00;23.60;;;;;;5086458;28;11550;-67
2021/11/20 10:50:33;;;;;;;;;21.00;21.00;31.50;23.90;;;;;;5093323;28;11454;-67
2021/11/20 10:53:12;;;;;;;;;23.75;23.75;32.00;23.90;;;;;;5094951;28;11527;-67
2021/11/20 10:55:47;;;;;;;;;24.50;24.50;33.30;22.80;;;;;;5094202;28;8802;-70
2021/11/20 10:58:29;;;;;;;;;19.00;19.00;34.60;22.30;;;;;;5093467;28;11518;-67
2021/11/20 11:01:23;;;;;;;;;21.25;21.25;34.90;21.40;;;;;;5092916;28;11532;-66
2021/11/20 11:04:07;;;;;;;;;21.50;21.50;35.10;21.00;;;;;;5090009;28;11461;-67
2021/11/20 11:06:48;;;;;;;;;21.00;21.00;35.10;21.00;;;;;;5089257;28;11623;-67
2021/11/20 11:09:17;;;;;;;;;19.00;19.00;33.30;21.90;;;;;;5094093;28;11526;-67
2021/11/20 11:12:07;;;;;;;;;19.25;19.25;33.50;22.30;;;;;;5093615;28;11505;-68
2021/11/20 11:15:01;;;;;;;;;14.25;14.25;34.20;21.60;;;;;;5094305;28;11975;-67
2021/11/20 11:18:03;;;;;;;;;11.25;11.25;32.70;22.10;;;;;;5094599;28;11466;-68
2021/11/20 11:20:41;;;;;;;;;16.00;16.00;34.80;21.00;;;;;;5094587;28;12245;-68
2021/11/20 11:23:27;;;;;;;;;16.25;16.25;35.90;20.50;;;;;;5094517;28;11487;-68
2021/11/20 11:26:02;;;;;;;;;18.00;18.00;37.40;19.70;;;;;;5094252;28;11434;-68
2021/11/20 11:28:44;;;;;;;;;19.75;19.75;37.40;19.50;;;;;;5093826;28;11487;-67
2021/11/20 11:31:26;;;;;;;;;17.75;17.75;36.40;20.00;;;;;;5088315;28;11487;-67
2021/11/20 11:34:03;;;;;;;;;17.50;17.50;36.70;20.40;;;;;;5093686;28;12229;-68
2021/11/20 11:36:40;;;;;;;;;15.00;15.00;37.40;19.50;;;;;;5076717;28;11426;-68
2021/11/20 11:39:27;;;;;;;;;9.50;9.50;37.60;18.70;;;;;;5072724;28;11530;-68
2021/11/20 11:42:11;;;;;;;;;17.00;17.00;36.20;19.70;;;;;;5079342;28;11454;-68
2021/11/20 11:44:55;;;;;;;;;17.00;17.00;36.40;19.50;;;;;;5093412;28;11438;-67
2021/11/20 11:47:43;;;;;;;;;12.00;12.00;36.90;19.00;;;;;;5092584;28;11485;-67
2021/11/20 11:50:27;;;;;;;;;17.75;17.75;37.20;19.90;;;;;;5086005;28;11477;-67
2021/11/20 11:53:11;;;;;;;;;18.00;18.00;38.10;18.80;;;;;;5093190;28;11496;-67
2021/11/20 11:55:53;;;;;;;;;15.75;15.75;38.00;18.70;;;;;;5093917;28;11563;-67
2021/11/20 11:58:25;;;;;;;;;19.25;19.25;37.80;18.40;;;;;;5093074;28;11496;-68
2021/11/20 12:00:56;;;;;;;;;18.25;18.25;38.40;18.30;;;;;;5093339;28;11451;-67
2021/11/20 12:03:25;;;;;;;;;17.25;17.25;38.60;18.40;;;;;;5091198;28;11518;-67
2021/11/20 12:06:30;;;;;;;;;36.00;32.67;38.10;18.30;;;;;;5084920;28;11457;-67
2021/11/20 12:09:16;;;;;;;;;20.00;20.00;37.30;19.00;;;;;;5055382;28;11478;-67
2021/11/20 12:11:44;;;;;;;;;14.75;14.75;37.60;18.70;;;;;;5092168;28;11642;-67
2021/11/20 12:14:19;;;;;;;;;17.50;17.50;37.50;18.50;;;;;;5091831;28;11441;-67
2021/11/20 12:17:01;;;;;;;;;15.00;15.00;36.50;19.00;;;;;;5092886;28;12197;-67
2021/11/20 12:19:35;;;;;;;;;20.50;20.50;36.00;19.50;;;;;;5092042;28;11424;-67
2021/11/20 12:22:20;;;;;;;;;19.00;19.00;32.30;20.40;;;;;;5097550;28;11544;-67
2021/11/20 12:24:53;;;;;;;;;20.75;20.75;32.10;21.70;;;;;;5097073;28;12330;-67
2021/11/20 12:27:34;;;;;;;;;14.50;14.50;32.40;21.50;;;;;;5089452;28;12228;-67
2021/11/20 12:30:22;;;;;;;;;14.50;14.50;33.60;21.40;;;;;;5089520;28;11402;-67
2021/11/20 12:33:06;;;;;;;;;20.00;20.00;33.80;20.70;;;;;;5097550;28;12104;-67
2021/11/20 12:35:49;;;;;;;;;19.00;19.00;33.50;21.10;;;;;;5093826;28;11457;-67
2021/11/20 12:38:36;;;;;;;;;24.75;24.75;33.20;21.60;;;;;;5090770;28;11459;-67
2021/11/20 12:41:38;;;;;;;;;24.00;24.00;33.30;21.70;;;;;;5095279;28;11408;-67
2021/11/20 12:44:22;;;;;;;;;21.25;21.25;33.20;22.10;;;;;;5094729;28;11505;-68
2021/11/20 12:47:06;;;;;;;;;19.25;19.25;33.40;21.40;;;;;;5096256;28;11431;-67
2021/11/20 12:49:38;;;;;;;;;16.50;16.50;34.00;20.90;;;;;;5095023;28;11551;-67
2021/11/20 12:52:26;;;;;;;;;25.50;25.50;33.60;21.30;;;;;;5093896;28;11463;-70
2021/11/20 12:54:55;;;;;;;;;20.25;20.25;33.80;21.10;;;;;;5097378;28;11537;-66
2021/11/20 12:57:43;;;;;;;;;21.25;21.25;32.90;21.50;;;;;;5094401;28;11469;-72
2021/11/20 13:00:09;;;;;;;;;20.75;20.75;32.10;22.10;;;;;;5092854;28;11565;-68